Time;durP1;ratioP1;P1;durP2;ratioP2;P2;SDS_P1;SDS_P2;PMS_P1;PMS_P2;Temp;Humidity;BMP_temperature;BMP_pressure;BME280_temperature;BME280_humidity;BME280_pressure;Samples;Min_cycle;Max_cycle;Signal;HPM_P1;HPM_P2
2020/12/18 00:01:52;;;;;;;12.77;11.27;;;;;;;;;;4573020;28;20445;-75
2020/12/18 00:04:28;;;;;;;12.40;11.10;;;;;;;;;;4578323;28;20445;-77
2020/12/18 00:06:43;;;;;;;12.03;10.83;;;;;;;;;;4577108;28;20535;-77
2020/12/18 00:08:59;;;;;;;13.00;11.70;;;7.30;70.40;;;;;;4579181;28;20444;-76
2020/12/18 00:11:22;;;;;;;13.23;11.83;;;7.90;69.80;;;;;;4576116;28;20449;-75
2020/12/18 00:13:38;;;;;;;12.33;10.97;;;;;;;;;;4579212;28;20496;-73
2020/12/18 00:15:54;;;;;;;13.70;12.27;;;7.90;75.00;;;;;;4574929;28;20453;-75
2020/12/18 00:18:10;;;;;;;13.60;12.17;;;;;;;;;;4579091;28;20994;-75
2020/12/18 00:20:42;;;;;;;13.57;12.17;;;;;;;;;;4576940;28;20484;-75
2020/12/18 00:22:57;;;;;;;13.73;12.27;;;6.40;74.80;;;;;;4578635;28;20441;-75
2020/12/18 00:25:15;;;;;;;14.77;13.20;;;7.60;75.60;;;;;;4578123;28;20448;-76
2020/12/18 00:27:32;;;;;;;16.17;14.07;;;;;;;;;;4578322;28;20773;-76
2020/12/18 00:29:47;;;;;;;16.43;14.27;;;;;;;;;;4576459;28;21050;-76
2020/12/18 00:32:06;;;;;;;17.93;16.03;;;8.60;76.60;;;;;;4577535;28;20947;-77
2020/12/18 00:34:24;;;;;;;21.97;17.67;;;;;;;;;;4578145;28;20433;-75
2020/12/18 00:36:40;;;;;;;20.93;18.47;;;;;;;;;;4577343;28;20993;-75
2020/12/18 00:38:58;;;;;;;22.83;19.57;;;;;;;;;;4578354;28;20456;-75
2020/12/18 00:41:14;;;;;;;23.80;20.80;;;;;;;;;;4576586;28;20468;-75
2020/12/18 00:43:30;;;;;;;25.67;22.07;;;7.80;76.60;;;;;;4577713;28;20479;-76
2020/12/18 00:45:46;;;;;;;29.07;23.40;;;;;;;;;;4576677;28;20476;-78
2020/12/18 00:48:04;;;;;;;26.40;22.07;;;8.30;77.40;;;;;;4577990;28;20433;-76
2020/12/18 00:50:21;;;;;;;29.33;25.20;;;;;;;;;;4574459;28;20451;-76
2020/12/18 00:52:37;;;;;;;28.97;25.03;;;;;;;;;;4577764;28;20441;-76
2020/12/18 00:54:53;;;;;;;27.40;24.23;;;;;;;;;;4574771;28;20817;-76
2020/12/18 00:57:13;;;;;;;29.07;23.93;;;;;;;;;;4576402;28;21099;-77
2020/12/18 00:59:29;;;;;;;29.20;24.90;;;;;;;;;;4575023;28;20453;-77
2020/12/18 01:01:46;;;;;;;28.53;23.90;;;;;;;;;;4578320;28;20939;-76
2020/12/18 01:04:02;;;;;;;29.33;23.40;;;9.10;78.60;;;;;;4558747;28;20449;-76
2020/12/18 01:06:19;;;;;;;28.87;24.83;;;;;;;;;;4576831;28;20441;-77
2020/12/18 01:08:46;;;;;;;29.63;25.00;;;;;;;;;;4575438;28;20437;-76
2020/12/18 01:11:07;;;;;;;29.20;24.27;;;8.30;78.20;;;;;;4575811;28;20473;-76
2020/12/18 01:13:24;;;;;;;30.27;25.67;;;;;;;;;;4575615;28;20464;-77
2020/12/18 01:15:40;;;;;;;31.97;25.60;;;;;;;;;;4575394;28;20445;-77
2020/12/18 01:18:10;;;;;;;30.40;25.90;;;;;;;;;;4576190;28;20454;-76
2020/12/18 01:20:28;;;;;;;29.07;24.73;;;;;;;;;;4574667;28;21199;-75
2020/12/18 01:22:46;;;;;;;30.70;27.03;;;6.80;71.50;;;;;;4576749;28;20491;-76
2020/12/18 01:25:08;;;;;;;32.00;27.30;;;;;;;;;;4574593;28;20949;-77
2020/12/18 01:27:24;;;;;;;30.33;25.33;;;;;;;;;;4576561;28;20987;-76
2020/12/18 01:29:41;;;;;;;32.70;26.57;;;;;;;;;;4575544;28;20444;-76
2020/12/18 01:31:59;;;;;;;32.23;27.47;;;8.10;77.60;;;;;;4576372;28;20432;-76
2020/12/18 01:34:19;;;;;;;32.20;28.07;;;;;;;;;;4574328;28;20524;-76
2020/12/18 01:36:35;;;;;;;28.63;24.93;;;8.90;77.80;;;;;;4576427;28;20472;-77
2020/12/18 01:39:00;;;;;;;33.23;28.20;;;6.20;71.00;;;;;;4574336;28;20442;-75
2020/12/18 01:41:17;;;;;;;33.47;27.03;;;9.20;77.90;;;;;;4575710;28;20842;-76
2020/12/18 01:43:35;;;;;;;33.40;25.80;;;;;;;;;;4574613;28;21065;-75
2020/12/18 01:45:51;;;;;;;31.43;26.23;;;;;;;;;;4576505;28;20503;-75
2020/12/18 01:48:11;;;;;;;33.23;28.30;;;7.50;77.40;;;;;;4575138;28;20500;-75
2020/12/18 01:50:39;;;;;;;33.73;27.77;;;9.40;78.60;;;;;;4575920;28;20917;-75
2020/12/18 01:52:55;;;;;;;35.47;28.67;;;;;;;;;;4575788;28;20532;-77
2020/12/18 01:55:23;;;;;;;36.07;30.60;;;8.30;72.70;;;;;;4573815;28;20465;-75
2020/12/18 01:57:40;;;;;;;31.67;26.23;;;;;;;;;;4576030;28;20461;-75
2020/12/18 01:59:58;;;;;;;34.37;27.27;;;7.50;77.60;;;;;;4574976;28;20480;-76
2020/12/18 02:02:33;;;;;;;29.30;24.80;;;7.60;77.80;;;;;;4577005;28;20444;-76
2020/12/18 02:04:59;;;;;;;32.30;25.97;;;8.60;78.20;;;;;;4574156;28;20492;-76
2020/12/18 02:07:20;;;;;;;24.83;21.57;;;8.60;73.00;;;;;;4575381;28;20441;-76
2020/12/18 02:09:46;;;;;;;22.90;19.57;;;;;;;;;;4558403;28;20842;-76
2020/12/18 02:12:06;;;;;;;25.30;21.57;;;;;;;;;;4574853;28;20441;-76
2020/12/18 02:14:26;;;;;;;25.27;20.73;;;;;;;;;;4575236;28;20461;-76
2020/12/18 02:16:48;;;;;;;28.83;23.17;;;;;;;;;;4574087;28;20465;-77
2020/12/18 02:19:13;;;;;;;26.93;22.73;;;;;;;;;;4575532;28;20894;-78
2020/12/18 02:21:30;;;;;;;25.97;21.43;;;;;;;;;;4573321;28;20488;-76
2020/12/18 02:23:48;;;;;;;26.00;21.43;;;;;;;;;;4575574;28;20524;-76
2020/12/18 02:26:06;;;;;;;26.97;21.60;;;8.50;73.20;;;;;;4574395;28;20798;-76
2020/12/18 02:28:26;;;;;;;22.50;18.70;;;;;;;;;;4577022;28;20432;-76
2020/12/18 02:30:41;;;;;;;24.50;20.20;;;;;;;;;;4573279;28;20437;-76
2020/12/18 02:33:13;;;;;;;26.00;21.03;;;;;;;;;;4574734;28;20437;-78
2020/12/18 02:35:39;;;;;;;25.43;20.00;;;;;;;;;;4573885;28;20449;-76
2020/12/18 02:37:55;;;;;;;23.90;19.17;;;;;;;;;;4575751;28;20528;-77
2020/12/18 02:40:19;;;;;;;26.60;20.77;;;;;;;;;;4558324;28;20552;-76
2020/12/18 02:42:55;;;;;;;23.80;17.80;;;;;;;;;;4574546;28;20439;-77
2020/12/18 02:45:13;;;;;;;22.33;18.03;;;;;;;;;;4575210;28;20425;-77
2020/12/18 02:47:29;;;;;;;23.53;19.30;;;;;;;;;;4573013;28;20448;-76
2020/12/18 02:49:46;;;;;;;22.57;17.57;;;;;;;;;;4575061;28;20540;-77
2020/12/18 02:52:13;;;;;;;22.57;18.50;;;;;;;;;;4572965;28;20426;-76
2020/12/18 02:54:47;;;;;;;22.40;17.70;;;7.60;77.70;;;;;;4576065;28;20523;-75
2020/12/18 02:57:26;;;;;;;22.10;17.67;;;;;;;;;;4573606;28;20437;-76
2020/12/18 03:00:04;;;;;;;21.17;17.57;;;;;;;;;;4574511;28;20483;-76
2020/12/18 03:02:22;;;;;;;21.57;16.73;;;6.70;77.30;;;;;;4574684;28;20924;-76
2020/12/18 03:04:42;;;;;;;23.77;17.90;;;;;;;;;;4573065;28;20440;-77
2020/12/18 03:07:11;;;;;;;22.93;18.60;;;;;;;;;;4558586;28;21106;-77
2020/12/18 03:09:30;;;;;;;22.83;17.67;;;;;;;;;;4556412;28;20446;-77
2020/12/18 03:11:46;;;;;;;22.07;18.30;;;;;;;;;;4574680;28;20441;-76
2020/12/18 03:14:03;;;;;;;21.93;17.47;;;7.80;72.70;;;;;;4572249;28;20460;-75
2020/12/18 03:16:25;;;;;;;23.17;18.13;;;7.50;77.30;;;;;;4558429;28;20462;-77
2020/12/18 03:19:07;;;;;;;22.77;19.03;;;;;;;;;;4574175;28;20554;-75
2020/12/18 03:21:23;;;;;;;26.37;19.43;;;;;;;;;;4573674;28;20485;-77
2020/12/18 03:24:08;;;;;;;22.97;16.93;;;;;;;;;;4566636;28;20488;-76
2020/12/18 03:26:52;;;;;;;19.17;15.20;;;7.70;77.60;;;;;;4573740;28;20540;-77
2020/12/18 03:29:15;;;;;;;21.43;17.13;;;;;;;;;;4558548;28;20457;-78
2020/12/18 03:31:33;;;;;;;19.77;16.00;;;;;;;;;;4572588;28;20437;-75
2020/12/18 03:33:49;;;;;;;20.67;16.40;;;8.00;77.70;;;;;;4574507;28;20887;-76
2020/12/18 03:36:25;;;;;;;18.10;14.97;;;6.60;77.10;;;;;;4573134;28;20425;-76
2020/12/18 03:38:43;;;;;;;18.80;15.50;;;;;;;;;;4572976;28;20448;-76
2020/12/18 03:40:59;;;;;;;21.70;17.33;;;9.00;78.10;;;;;;4574910;28;20483;-75
2020/12/18 03:43:18;;;;;;;22.00;17.07;;;;;;;;;;4573277;28;20433;-74
2020/12/18 03:45:34;;;;;;;24.00;18.10;;;;;;;;;;4573820;28;20468;-74
2020/12/18 03:47:56;;;;;;;24.63;18.43;;;7.60;72.50;;;;;;4572903;28;20438;-76
2020/12/18 03:50:16;;;;;;;23.93;18.70;;;;;;;;;;4574297;28;20433;-74
2020/12/18 03:52:50;;;;;;;24.53;19.10;;;7.30;77.60;;;;;;4572300;28;20471;-75
2020/12/18 03:55:06;;;;;;;24.50;18.50;;;;;;;;;;4574744;28;20524;-76
2020/12/18 03:57:43;;;;;;;24.90;19.10;;;;;;;;;;4573580;28;20939;-76
2020/12/18 04:00:28;;;;;;;25.90;18.70;;;;;;;;;;4573500;28;20464;-76
2020/12/18 04:02:54;;;;;;;24.47;19.23;;;;;;;;;;4573815;28;20441;-75
2020/12/18 04:05:11;;;;;;;24.90;19.87;;;;;;;;;;4574119;28;20811;-75
2020/12/18 04:07:28;;;;;;;27.33;20.30;;;;;;;;;;4574002;28;20441;-76
2020/12/18 04:09:45;;;;;;;26.70;18.90;;;7.40;77.80;;;;;;4572352;28;20947;-75
2020/12/18 04:12:03;;;;;;;27.73;19.90;;;;;;;;;;4574299;28;20627;-77
2020/12/18 04:14:45;;;;;;;28.10;20.07;;;;;;;;;;4573019;28;20476;-75
2020/12/18 04:17:12;;;;;;;27.60;20.60;;;;;;;;;;4574163;28;20464;-76
2020/12/18 04:19:30;;;;;;;28.30;20.50;;;;;;;;;;4572224;28;20436;-75
2020/12/18 04:21:47;;;;;;;27.10;19.40;;;8.30;73.80;;;;;;4574826;28;20598;-77
2020/12/18 04:24:12;;;;;;;29.20;20.63;;;7.80;78.50;;;;;;4572736;28;20461;-76
2020/12/18 04:26:30;;;;;;;27.17;19.47;;;;;;;;;;4574385;28;20947;-78
2020/12/18 04:28:46;;;;;;;26.70;19.70;;;6.60;77.80;;;;;;4573098;28;20451;-76
2020/12/18 04:31:05;;;;;;;28.43;19.57;;;;;;;;;;4572797;28;20437;-75
2020/12/18 04:33:21;;;;;;;32.73;21.00;;;;;;;;;;4573450;28;20955;-76
2020/12/18 04:35:37;;;;;;;30.77;20.83;;;;;;;;;;4572224;28;20460;-76
2020/12/18 04:38:00;;;;;;;31.03;19.93;;;;;;;;;;4573761;28;20438;-76
2020/12/18 04:40:23;;;;;;;33.33;21.63;;;;;;;;;;4571745;28;20469;-77
2020/12/18 04:42:50;;;;;;;29.47;21.50;;;;;;;;;;4573940;28;20484;-75
2020/12/18 04:45:06;;;;;;;28.60;20.23;;;;;;;;;;4571692;28;20476;-76
2020/12/18 04:47:30;;;;;;;30.27;20.47;;;8.00;79.80;;;;;;4573918;28;20436;-76
2020/12/18 04:49:46;;;;;;;30.33;20.40;;;;;;;;;;4556599;28;20937;-76
2020/12/18 04:52:10;;;;;;;30.20;20.70;;;;;;;;;;4560866;28;20449;-76
2020/12/18 04:54:36;;;;;;;30.20;20.47;;;;;;;;;;4575381;28;20937;-77
2020/12/18 04:56:59;;;;;;;28.93;20.00;;;;;;;;;;4576272;28;20461;-76
2020/12/18 04:59:24;;;;;;;29.80;20.47;;;8.10;74.60;;;;;;4576096;28;20803;-76
2020/12/18 05:01:46;;;;;;;40.57;21.47;;;;;;;;;;4575031;28;20469;-79
2020/12/18 05:04:08;;;;;;;30.90;19.60;;;;;;;;;;4576504;28;20469;-76
2020/12/18 05:06:34;;;;;;;27.70;19.50;;;;;;;;;;4574538;28;20433;-76
2020/12/18 05:08:50;;;;;;;30.37;20.53;;;;;;;;;;4576734;28;20862;-77
2020/12/18 05:11:16;;;;;;;30.80;20.17;;;;;;;;;;4574444;28;20453;-77
2020/12/18 05:13:36;;;;;;;32.50;21.13;;;;;;;;;;4560448;28;20453;-77
2020/12/18 05:15:59;;;;;;;30.77;19.37;;;8.20;74.90;;;;;;4574394;28;20433;-77
2020/12/18 05:18:36;;;;;;;27.20;18.67;;;;;;;;;;4577277;28;20507;-78
2020/12/18 05:21:06;;;;;;;31.77;20.00;;;;;;;;;;4575554;28;20889;-76
2020/12/18 05:23:28;;;;;;;29.97;20.03;;;;;;;;;;4558723;28;20431;-76
2020/12/18 05:26:05;;;;;;;27.97;19.03;;;;;;;;;;4576431;28;20435;-76
2020/12/18 05:28:37;;;;;;;33.63;20.20;;;8.70;75.10;;;;;;4574491;28;20426;-75
2020/12/18 05:30:57;;;;;;;29.80;19.17;;;9.20;81.20;;;;;;4576609;28;20505;-75
2020/12/18 05:33:34;;;;;;;31.80;19.60;;;;;;;;;;4575781;28;20442;-76
2020/12/18 05:36:10;;;;;;;30.53;19.50;;;;;;;;;;4575407;28;21071;-76
2020/12/18 05:38:26;;;;;;;30.73;19.50;;;;;;;;;;4575405;28;20452;-76
2020/12/18 05:41:01;;;;;;;28.47;19.37;;;;;;;;;;4574369;28;21004;-76
2020/12/18 05:43:47;;;;;;;30.57;19.23;;;;;;;;;;4575385;28;20451;-74
2020/12/18 05:46:25;;;;;;;29.57;20.00;;;6.10;73.40;;;;;;4575478;28;20441;-76
2020/12/18 05:48:58;;;;;;;31.00;19.30;;;;;;;;;;4575564;28;20433;-76
2020/12/18 05:51:27;;;;;;;28.67;19.57;;;5.80;73.20;;;;;;4576034;28;20441;-76
2020/12/18 05:53:44;;;;;;;29.40;18.83;;;;;;;;;;4574777;28;20444;-76
2020/12/18 05:56:28;;;;;;;29.73;18.60;;;;;;;;;;4576164;28;20441;-76
2020/12/18 05:58:48;;;;;;;27.07;18.17;;;;;;;;;;4573572;28;20448;-76
2020/12/18 06:01:18;;;;;;;28.97;18.73;;;;;;;;;;4575401;28;20890;-75
2020/12/18 06:04:08;;;;;;;30.00;19.40;;;8.40;75.00;;;;;;4566611;28;20468;-75
2020/12/18 06:06:30;;;;;;;33.20;20.23;;;8.20;75.00;;;;;;4575138;28;20461;-76
2020/12/18 06:08:46;;;;;;;36.73;20.93;;;;;;;;;;4575071;28;20436;-77
2020/12/18 06:11:08;;;;;;;33.83;20.13;;;8.60;75.10;;;;;;4574337;28;20593;-75
2020/12/18 06:13:37;;;;;;;33.00;20.23;;;8.40;75.00;;;;;;4575094;28;20532;-75
2020/12/18 06:16:03;;;;;;;33.43;21.13;;;;;;;;;;4573116;28;20779;-75
2020/12/18 06:18:55;;;;;;;33.50;20.97;;;;;;;;;;4575475;28;20448;-75
2020/12/18 06:21:24;;;;;;;34.03;20.90;;;;;;;;;;4573307;28;20914;-75
2020/12/18 06:23:45;;;;;;;36.90;21.77;;;;;;;;;;4574431;28;21001;-75
2020/12/18 06:26:27;;;;;;;35.50;21.90;;;;;;;;;;4574760;28;20962;-75
2020/12/18 06:29:05;;;;;;;38.33;21.03;;;;;;;;;;4574573;28;20429;-75
2020/12/18 06:31:37;;;;;;;37.07;21.40;;;;;;;;;;4559123;28;20438;-75
2020/12/18 06:34:22;;;;;;;33.47;20.97;;;8.40;76.00;;;;;;4575188;28;20768;-74
2020/12/18 06:37:00;;;;;;;34.80;22.40;;;8.50;75.80;;;;;;4575240;28;21240;-76
2020/12/18 06:39:38;;;;;;;37.13;22.83;;;;;;;;;;4574851;28;20429;-75
2020/12/18 06:42:15;;;;;;;38.07;22.90;;;;;;;;;;4573633;28;20491;-75
2020/12/18 06:44:50;;;;;;;36.93;23.20;;;;;;;;;;4576220;28;20982;-76
2020/12/18 06:47:31;;;;;;;36.50;22.63;;;;;;;;;;4574244;28;20456;-74
2020/12/18 06:50:11;;;;;;;35.80;22.20;;;;;;;;;;4574908;28;20491;-75
2020/12/18 06:52:51;;;;;;;40.10;22.97;;;;;;;;;;4570367;28;20456;-75
2020/12/18 06:55:09;;;;;;;38.03;22.70;;;5.70;74.80;;;;;;4572322;28;20456;-76
2020/12/18 06:58:08;;;;;;;38.40;23.03;;;6.20;74.90;;;;;;4560123;28;20452;-76
2020/12/18 07:00:31;;;;;;;39.23;23.87;;;8.10;76.20;;;;;;4574223;28;20429;-77
2020/12/18 07:02:49;;;;;;;39.83;24.27;;;;;;;;;;4574758;28;20492;-79
2020/12/18 07:05:05;;;;;;;36.90;23.63;;;;;;;;;;4574024;28;20472;-77
2020/12/18 07:07:21;;;;;;;37.70;24.13;;;;;;;;;;4574126;28;20449;-77
2020/12/18 07:09:37;;;;;;;38.83;25.40;;;;;;;;;;4574665;28;20472;-76
2020/12/18 07:11:53;;;;;;;36.87;24.40;;;;;;;;;;4573992;28;20981;-77
2020/12/18 07:14:15;;;;;;;40.73;25.97;;;;;;;;;;4574211;28;20920;-76
2020/12/18 07:16:31;;;;;;;40.10;26.07;;;;;;;;;;4573578;28;20904;-77
2020/12/18 07:18:50;;;;;;;43.07;26.37;;;;;;;;;;4575470;28;20908;-77
2020/12/18 07:21:07;;;;;;;40.83;25.97;;;;;;;;;;4572886;28;20554;-77
2020/12/18 07:23:24;;;;;;;39.87;26.27;;;;;;;;;;4574127;28;20433;-76
2020/12/18 07:25:41;;;;;;;38.27;25.47;;;;;;;;;;4573281;28;20449;-76
2020/12/18 07:27:57;;;;;;;42.33;27.13;;;;;;;;;;4574453;28;20441;-75
2020/12/18 07:30:13;;;;;;;44.40;27.63;;;;;;;;;;4572919;28;20437;-76
2020/12/18 07:32:29;;;;;;;40.80;26.90;;;;;;;;;;4575661;28;20455;-77
2020/12/18 07:34:45;;;;;;;40.73;26.00;;;;;;;;;;4573797;28;20445;-77
2020/12/18 07:37:11;;;;;;;36.80;24.73;;;;;;;;;;4575544;28;20447;-77
2020/12/18 07:39:27;;;;;;;37.83;24.67;;;;;;;;;;4573541;28;20441;-75
2020/12/18 07:41:42;;;;;;;41.23;21.77;;;;;;;;;;4574927;28;20623;-76
2020/12/18 07:44:04;;;;;;;33.83;21.33;;;8.40;76.50;;;;;;4573877;28;20473;-78
2020/12/18 07:46:20;;;;;;;30.83;20.70;;;6.60;75.30;;;;;;4572906;28;20464;-76
2020/12/18 07:48:40;;;;;;;32.03;21.90;;;8.10;76.50;;;;;;4574272;28;20430;-77
2020/12/18 07:50:59;;;;;;;30.83;21.23;;;;;;;;;;4573726;28;20441;-78
2020/12/18 07:53:15;;;;;;;35.67;22.87;;;;;;;;;;4573537;28;20956;-78
2020/12/18 07:55:33;;;;;;;35.90;23.40;;;;;;;;;;4573191;28;20445;-80
2020/12/18 07:57:49;;;;;;;35.83;24.50;;;;;;;;;;4575237;28;20487;-76
2020/12/18 08:00:08;;;;;;;33.63;22.33;;;;;;;;;;4573316;28;20449;-76
2020/12/18 08:02:27;;;;;;;32.53;21.93;;;;;;;;;;4574987;28;20946;-77
2020/12/18 08:04:47;;;;;;;35.87;22.53;;;;;;;;;;4573099;28;20472;-75
2020/12/18 08:07:06;;;;;;;33.63;21.80;;;;;;;;;;4573904;28;20459;-77
2020/12/18 08:09:22;;;;;;;35.90;23.00;;;;;;;;;;4572542;28;20421;-77
2020/12/18 08:11:42;;;;;;;35.47;23.37;;;;;;;;;;4575233;28;20441;-76
2020/12/18 08:13:59;;;;;;;38.10;24.07;;;5.70;74.60;;;;;;4572671;28;20444;-78
2020/12/18 08:16:19;;;;;;;36.13;24.60;;;5.90;74.60;;;;;;4575122;28;20552;-77
2020/12/18 08:18:36;;;;;;;35.73;24.03;;;;;;;;;;4572768;28;20448;-76
2020/12/18 08:20:51;;;;;;;36.03;24.27;;;;;;;;;;4574021;28;20468;-77
2020/12/18 08:23:08;;;;;;;34.40;22.67;;;;;;;;;;4573557;28;20442;-76
2020/12/18 08:25:43;;;;;;;38.77;25.00;;;;;;;;;;4576375;28;20425;-76
2020/12/18 08:28:06;;;;;;;37.93;23.10;;;;;;;;;;4577953;28;20527;-75
2020/12/18 08:30:27;;;;;;;36.33;22.27;;;;;;;;;;4576430;28;20689;-75
2020/12/18 08:32:47;;;;;;;34.17;21.97;;;;;;;;;;4578594;28;20433;-76
2020/12/18 08:35:05;;;;;;;37.10;23.20;;;;;;;;;;4576261;28;20990;-77
2020/12/18 08:37:22;;;;;;;37.27;24.03;;;7.40;81.80;;;;;;4578271;28;20498;-76
2020/12/18 08:39:43;;;;;;;34.77;23.03;;;;;;;;;;4576158;28;20548;-76
2020/12/18 08:41:59;;;;;;;35.60;24.00;;;;;;;;;;4578162;28;20537;-75
2020/12/18 08:44:16;;;;;;;36.17;23.80;;;;;;;;;;4575773;28;21046;-77
2020/12/18 08:46:33;;;;;;;38.00;24.70;;;;;;;;;;4576651;28;20444;-76
2020/12/18 08:48:49;;;;;;;43.00;25.80;;;;;;;;;;4576018;28;20951;-77
2020/12/18 08:51:06;;;;;;;36.73;23.13;;;;;;;;;;4559876;28;20484;-78
2020/12/18 08:53:22;;;;;;;38.53;25.70;;;;;;;;;;4590374;28;20444;-78
2020/12/18 08:55:50;;;;;;;38.23;25.47;;;;;;;;;;4595262;28;20436;-79
2020/12/18 08:58:07;;;;;;;40.17;25.10;;;;;;;;;;4593823;28;20509;-79
2020/12/18 09:00:23;;;;;;;37.90;24.53;;;;;;;;;;4594271;28;20539;-81
2020/12/18 09:02:40;;;;;;;42.03;24.83;;;;;;;;;;4595089;28;20479;-79
2020/12/18 09:05:21;;;;;;;39.40;25.07;;;8.00;77.20;;;;;;4595130;28;20546;-78
2020/12/18 09:07:39;;;;;;;37.30;24.77;;;5.60;75.80;;;;;;4596073;28;20498;-83
2020/12/18 09:09:56;;;;;;;43.63;26.40;;;;;;;;;;4592909;28;20436;-82
2020/12/18 09:12:16;;;;;;;39.97;24.60;;;;;;;;;;4594540;28;20472;-80
2020/12/18 09:14:33;;;;;;;38.80;23.93;;;;;;;;;;4576158;28;20932;-82
2020/12/18 09:16:53;;;;;;;36.77;23.57;;;;;;;;;;4594983;28;20497;-81
2020/12/18 09:19:09;;;;;;;37.97;23.27;;;;;;;;;;4576208;28;20537;-79
2020/12/18 09:21:25;;;;;;;35.57;22.97;;;;;;;;;;4593952;28;20561;-80
2020/12/18 09:23:42;;;;;;;40.47;23.40;;;8.90;83.20;;;;;;4592217;28;20904;-79
2020/12/18 09:26:09;;;;;;;40.47;24.13;;;;;;;;;;4594765;28;20504;-78
2020/12/18 09:28:26;;;;;;;39.67;24.53;;;;;;;;;;4593803;28;20436;-78
2020/12/18 09:30:47;;;;;;;37.67;22.47;;;8.10;76.90;;;;;;4592432;28;20571;-77
2020/12/18 09:33:13;;;;;;;38.77;24.30;;;;;;;;;;4594429;28;20417;-79
2020/12/18 09:35:30;;;;;;;37.53;22.23;;;;;;;;;;4593008;28;21006;-79
2020/12/18 09:37:46;;;;;;;35.70;22.07;;;;;;;;;;4594858;28;21004;-78
2020/12/18 09:40:02;;;;;;;37.17;23.07;;;;;;;;;;4591771;28;20828;-76
2020/12/18 09:42:18;;;;;;;37.00;23.30;;;;;;;;;;4597304;28;20966;-78
2020/12/18 09:44:59;;;;;;;39.00;22.60;;;;;;;;;;4592643;28;20522;-78
2020/12/18 09:47:15;;;;;;;34.63;22.60;;;;;;;;;;4593629;28;20534;-78
2020/12/18 09:49:31;;;;;;;40.17;25.07;;;;;;;;;;4593305;28;20443;-80
2020/12/18 09:51:50;;;;;;;37.20;22.47;;;;;;;;;;4593943;28;20823;-78
2020/12/18 09:54:06;;;;;;;40.23;23.23;;;;;;;;;;4575116;28;20852;-78
2020/12/18 09:56:26;;;;;;;45.23;24.83;;;;;;;;;;4593222;28;20432;-81
2020/12/18 09:58:43;;;;;;;40.60;23.57;;;;;;;;;;4591347;28;20444;-78
2020/12/18 10:01:03;;;;;;;37.90;23.97;;;;;;;;;;4593778;28;20506;-79
2020/12/18 10:03:19;;;;;;;38.83;24.37;;;;;;;;;;4593158;28;20562;-79
2020/12/18 10:05:36;;;;;;;42.40;25.67;;;;;;;;;;4593625;28;20510;-78
2020/12/18 10:07:52;;;;;;;37.50;25.00;;;;;;;;;;4592647;28;21008;-80
2020/12/18 10:10:08;;;;;;;41.07;25.87;;;;;;;;;;4593584;28;20447;-78
2020/12/18 10:12:24;;;;;;;35.30;23.80;;;;;;;;;;4594426;28;20448;-78
2020/12/18 10:14:41;;;;;;;39.63;24.17;;;;;;;;;;4575295;28;20453;-77
2020/12/18 10:16:58;;;;;;;39.27;24.17;;;;;;;;;;4594199;28;20444;-78
2020/12/18 10:19:15;;;;;;;36.80;24.40;;;;;;;;;;4592396;28;20450;-79
2020/12/18 10:21:31;;;;;;;39.40;24.57;;;;;;;;;;4594202;28;20522;-77
2020/12/18 10:23:47;;;;;;;40.00;24.73;;;;;;;;;;4591706;28;20805;-79
2020/12/18 10:26:05;;;;;;;34.67;22.87;;;;;;;;;;4592973;28;20436;-77
2020/12/18 10:28:21;;;;;;;36.17;23.30;;;;;;;;;;4590042;28;21005;-78
2020/12/18 10:30:38;;;;;;;38.83;23.40;;;;;;;;;;4593645;28;20529;-77
2020/12/18 10:32:55;;;;;;;41.90;26.43;;;;;;;;;;4591492;28;20988;-77
2020/12/18 10:35:12;;;;;;;43.47;25.10;;;;;;;;;;4593907;28;20479;-79
2020/12/18 10:37:29;;;;;;;39.57;24.73;;;;;;;;;;4589937;28;20491;-77
2020/12/18 10:39:44;;;;;;;39.17;24.70;;;;;;;;;;4593600;28;20906;-77
2020/12/18 10:42:02;;;;;;;38.37;23.93;;;;;;;;;;4590429;28;20507;-80
2020/12/18 10:44:18;;;;;;;37.03;22.97;;;;;;;;;;4592252;28;20503;-80
2020/12/18 10:46:37;;;;;;;35.70;22.23;;;;;;;;;;4592052;28;20475;-80
2020/12/18 10:48:54;;;;;;;37.30;23.53;;;;;;;;;;4589892;28;20444;-79
2020/12/18 10:51:11;;;;;;;39.47;24.53;;;;;;;;;;4589145;28;20434;-80
2020/12/18 10:53:27;;;;;;;36.97;22.40;;;;;;;;;;4591828;28;20461;-78
2020/12/18 10:55:43;;;;;;;36.13;23.20;;;;;;;;;;4592590;28;20450;-80
2020/12/18 10:57:59;;;;;;;35.53;22.13;;;;;;;;;;4591890;28;20506;-79
2020/12/18 11:00:15;;;;;;;38.17;23.23;;;;;;;;;;4591192;28;20456;-79
2020/12/18 11:02:33;;;;;;;33.50;22.27;;;;;;;;;;4589230;28;20494;-78
2020/12/18 11:04:50;;;;;;;33.63;22.17;;;;;;;;;;4591880;28;20434;-82
2020/12/18 11:07:07;;;;;;;39.37;22.03;;;;;;;;;;4588989;28;20847;-81
2020/12/18 11:09:23;;;;;;;37.00;21.43;;;;;;;;;;4591102;28;20523;-78
2020/12/18 11:11:38;;;;;;;35.17;20.47;;;;;;;;;;4590271;28;20444;-78
2020/12/18 11:13:54;;;;;;;31.63;21.10;;;;;;;;;;4592189;28;20629;-76
2020/12/18 11:16:11;;;;;;;38.80;22.90;;;;;;;;;;4590176;28;20556;-78
2020/12/18 11:18:27;;;;;;;35.27;21.67;;;;;;;;;;4592724;28;20498;-78
2020/12/18 11:20:44;;;;;;;36.93;22.17;;;;;;;;;;4590391;28;20934;-77
2020/12/18 11:23:01;;;;;;;36.90;21.97;;;;;;;;;;4591667;28;20538;-77
2020/12/18 11:25:17;;;;;;;34.77;20.83;;;;;;;;;;4590897;28;20440;-80
2020/12/18 11:27:33;;;;;;;34.60;20.73;;;;;;;;;;4592845;28;20455;-78
2020/12/18 11:29:49;;;;;;;36.43;21.93;;;;;;;;;;4590604;28;20990;-78
2020/12/18 11:32:05;;;;;;;34.67;22.43;;;;;;;;;;4592603;28;21018;-77
2020/12/18 11:34:23;;;;;;;38.73;23.67;;;;;;;;;;4589418;28;20575;-79
2020/12/18 11:36:40;;;;;;;37.67;24.00;;;;;;;;;;4592484;28;20926;-78
2020/12/18 11:38:55;;;;;;;38.73;23.20;;;;;;;;;;4589305;28;20448;-77
2020/12/18 11:41:11;;;;;;;37.20;23.07;;;;;;;;;;4590361;28;20448;-78
2020/12/18 11:43:27;;;;;;;42.60;24.30;;;;;;;;;;4590282;28;20536;-77
2020/12/18 11:45:46;;;;;;;37.10;23.70;;;;;;;;;;4591195;28;20471;-77
2020/12/18 11:48:02;;;;;;;38.60;23.37;;;;;;;;;;4591565;28;20444;-77
2020/12/18 11:50:18;;;;;;;40.30;23.53;;;;;;;;;;4588942;28;20467;-80
2020/12/18 11:52:35;;;;;;;36.83;24.07;;;;;;;;;;4592032;28;20448;-75
2020/12/18 11:54:51;;;;;;;37.40;23.40;;;;;;;;;;4590574;28;20444;-77
2020/12/18 11:57:07;;;;;;;36.87;24.53;;;;;;;;;;4575076;28;20445;-78
2020/12/18 11:59:23;;;;;;;33.80;23.00;;;;;;;;;;4590270;28;20440;-78
2020/12/18 12:01:39;;;;;;;34.17;22.57;;;;;;;;;;4596176;28;20791;-76
2020/12/18 12:03:55;;;;;;;32.60;21.63;;;;;;;;;;4594257;28;20452;-77
2020/12/18 12:06:11;;;;;;;36.10;23.80;;;;;;;;;;4595335;28;20440;-79
2020/12/18 12:08:30;;;;;;;45.97;31.70;;;;;;;;;;4593034;28;20440;-81
2020/12/18 12:10:46;;;;;;;33.53;22.87;;;;;;;;;;4596592;28;20428;-78
2020/12/18 12:13:02;;;;;;;37.60;23.73;;;;;;;;;;4597069;28;20471;-77
2020/12/18 12:15:18;;;;;;;36.97;23.27;;;;;;;;;;4597270;28;20463;-77
2020/12/18 12:17:34;;;;;;;32.00;21.43;;;;;;;;;;4595901;28;20446;-79
2020/12/18 12:19:50;;;;;;;37.17;22.23;;;;;;;;;;4597978;28;20443;-80
2020/12/18 12:22:06;;;;;;;34.40;21.07;;;;;;;;;;4594629;28;20487;-79
2020/12/18 12:24:24;;;;;;;30.73;19.83;;;;;;;;;;4594657;28;20520;-79
2020/12/18 12:26:40;;;;;;;32.53;20.53;;;;;;;;;;4594937;28;20435;-78
2020/12/18 12:28:56;;;;;;;33.80;22.57;;;;;;;;;;4593371;28;20444;-80
2020/12/18 12:31:12;;;;;;;29.03;19.93;;;;;;;;;;4593412;28;20443;-77
2020/12/18 12:33:29;;;;;;;30.70;19.63;;;9.00;82.30;;;;;;4594779;28;20961;-77
2020/12/18 12:35:45;;;;;;;32.77;19.17;;;;;;;;;;4594955;28;20547;-76
2020/12/18 12:38:04;;;;;;;28.13;18.83;;;;;;;;;;4593186;28;20934;-78
2020/12/18 12:40:21;;;;;;;28.60;19.03;;;;;;;;;;4595315;28;20434;-77
2020/12/18 12:42:37;;;;;;;32.90;20.07;;;;;;;;;;4592608;28;20567;-76
2020/12/18 12:44:53;;;;;;;26.13;18.77;;;6.60;80.80;;;;;;4595671;28;20518;-78
2020/12/18 12:47:10;;;;;;;29.20;19.60;;;;;;;;;;4593863;28;20467;-76
2020/12/18 12:49:26;;;;;;;28.97;19.77;;;;;;;;;;4595768;28;20444;-78
2020/12/18 12:51:42;;;;;;;32.10;20.33;;;;;;;;;;4593588;28;20459;-77
2020/12/18 12:53:58;;;;;;;29.37;19.93;;;;;;;;;;4595938;28;20873;-79
2020/12/18 12:56:16;;;;;;;32.17;20.37;;;;;;;;;;4592696;28;20457;-80
2020/12/18 12:58:33;;;;;;;30.70;19.37;;;;;;;;;;4595647;28;20444;-80
2020/12/18 13:00:50;;;;;;;31.43;20.03;;;;;;;;;;4593148;28;20894;-79
2020/12/18 13:03:06;;;;;;;32.97;19.83;;;;;;;;;;4596670;28;20476;-78
2020/12/18 13:05:23;;;;;;;29.90;18.77;;;;;;;;;;4592372;28;20443;-79
2020/12/18 13:07:38;;;;;;;32.33;19.17;;;;;;;;;;4595729;28;20801;-80
2020/12/18 13:09:55;;;;;;;26.37;18.73;;;;;;;;;;4593758;28;20455;-79
2020/12/18 13:12:15;;;;;;;25.27;17.50;;;;;;;;;;4593561;28;20491;-79
2020/12/18 13:14:37;;;;;;;27.23;17.73;;;;;;;;;;4592953;28;20870;-78
2020/12/18 13:16:53;;;;;;;33.03;18.40;;;;;;;;;;4594294;28;20472;-82
2020/12/18 13:19:10;;;;;;;27.03;17.80;;;;;;;;;;4594535;28;20557;-78
2020/12/18 13:21:29;;;;;;;23.27;15.60;;;6.70;75.60;;;;;;4592642;28;20471;-78